sensor_id;sensor_type;location;lat;lon;timestamp;P1;durP1;ratioP1;P2;durP2;ratioP2
6763;SDS011;47432;48.760;9.178;2022-12-18T00:01:19;42.22;;;21.77;;
6763;SDS011;47432;48.760;9.178;2022-12-18T00:03:47;50.33;;;23.58;;
6763;SDS011;47432;48.760;9.178;2022-12-18T00:06:15;49.33;;;23.27;;
6763;SDS011;47432;48.760;9.178;2022-12-18T00:08:44;48.55;;;22.00;;
6763;SDS011;47432;48.760;9.178;2022-12-18T00:11:14;48.15;;;22.45;;
6763;SDS011;47432;48.760;9.178;2022-12-18T00:13:43;44.20;;;23.40;;
6763;SDS011;47432;48.760;9.178;2022-12-18T00:16:11;48.83;;;21.30;;
6763;SDS011;47432;48.760;9.178;2022-12-18T00:18:38;55.10;;;24.48;;
6763;SDS011;47432;48.760;9.178;2022-12-18T00:21:10;52.13;;;25.85;;
6763;SDS011;47432;48.760;9.178;2022-12-18T00:23:37;48.00;;;21.98;;
6763;SDS011;47432;48.760;9.178;2022-12-18T00:26:06;50.40;;;23.30;;
6763;SDS011;47432;48.760;9.178;2022-12-18T00:28:34;61.28;;;25.77;;
6763;SDS011;47432;48.760;9.178;2022-12-18T00:31:04;47.43;;;23.30;;
6763;SDS011;47432;48.760;9.178;2022-12-18T00:33:32;46.05;;;21.25;;
6763;SDS011;47432;48.760;9.178;2022-12-18T00:36:02;48.05;;;22.48;;
6763;SDS011;47432;48.760;9.178;2022-12-18T00:38:33;54.05;;;22.92;;
6763;SDS011;47432;48.760;9.178;2022-12-18T00:40:59;42.75;;;22.27;;
6763;SDS011;47432;48.760;9.178;2022-12-18T00:43:28;48.35;;;23.98;;
6763;SDS011;47432;48.760;9.178;2022-12-18T00:45:54;43.50;;;21.27;;
6763;SDS011;47432;48.760;9.178;2022-12-18T00:48:21;50.63;;;26.55;;
6763;SDS011;47432;48.760;9.178;2022-12-18T00:50:47;56.45;;;23.35;;
6763;SDS011;47432;48.760;9.178;2022-12-18T00:53:14;50.88;;;23.20;;
6763;SDS011;47432;48.760;9.178;2022-12-18T00:55:40;54.65;;;22.77;;
6763;SDS011;47432;48.760;9.178;2022-12-18T00:58:07;49.60;;;24.15;;
6763;SDS011;47432;48.760;9.178;2022-12-18T01:00:34;51.53;;;24.10;;
6763;SDS011;47432;48.760;9.178;2022-12-18T01:03:00;47.30;;;21.85;;
6763;SDS011;47432;48.760;9.178;2022-12-18T01:05:26;51.00;;;22.87;;
6763;SDS011;47432;48.760;9.178;2022-12-18T01:07:52;43.80;;;21.80;;
6763;SDS011;47432;48.760;9.178;2022-12-18T01:10:18;40.65;;;18.17;;
6763;SDS011;47432;48.760;9.178;2022-12-18T01:12:44;49.17;;;20.47;;
6763;SDS011;47432;48.760;9.178;2022-12-18T01:15:13;43.50;;;18.67;;
6763;SDS011;47432;48.760;9.178;2022-12-18T01:17:43;43.28;;;18.95;;
6763;SDS011;47432;48.760;9.178;2022-12-18T01:20:10;45.60;;;20.87;;
6763;SDS011;47432;48.760;9.178;2022-12-18T01:22:40;44.85;;;18.67;;
6763;SDS011;47432;48.760;9.178;2022-12-18T01:25:06;51.43;;;21.17;;
6763;SDS011;47432;48.760;9.178;2022-12-18T01:27:35;45.22;;;21.73;;
6763;SDS011;47432;48.760;9.178;2022-12-18T01:30:00;46.33;;;21.90;;
6763;SDS011;47432;48.760;9.178;2022-12-18T01:32:28;52.00;;;22.27;;
6763;SDS011;47432;48.760;9.178;2022-12-18T01:34:55;45.88;;;21.17;;
6763;SDS011;47432;48.760;9.178;2022-12-18T01:37:21;38.40;;;18.63;;
6763;SDS011;47432;48.760;9.178;2022-12-18T01:39:49;48.43;;;21.63;;
6763;SDS011;47432;48.760;9.178;2022-12-18T01:42:20;44.42;;;19.98;;
6763;SDS011;47432;48.760;9.178;2022-12-18T01:47:26;47.47;;;20.17;;
6763;SDS011;47432;48.760;9.178;2022-12-18T01:50:10;42.90;;;18.85;;
6763;SDS011;47432;48.760;9.178;2022-12-18T01:52:55;45.95;;;20.48;;
6763;SDS011;47432;48.760;9.178;2022-12-18T01:55:29;44.75;;;21.77;;
6763;SDS011;47432;48.760;9.178;2022-12-18T01:58:01;38.53;;;20.00;;
6763;SDS011;47432;48.760;9.178;2022-12-18T02:00:27;47.22;;;23.30;;
6763;SDS011;47432;48.760;9.178;2022-12-18T02:02:54;47.10;;;21.90;;
6763;SDS011;47432;48.760;9.178;2022-12-18T02:05:33;45.17;;;19.90;;
6763;SDS011;47432;48.760;9.178;2022-12-18T02:08:19;46.30;;;19.83;;
6763;SDS011;47432;48.760;9.178;2022-12-18T02:16:39;40.30;;;18.80;;
6763;SDS011;47432;48.760;9.178;2022-12-18T02:19:32;40.70;;;18.70;;
6763;SDS011;47432;48.760;9.178;2022-12-18T02:27:57;47.90;;;22.92;;
6763;SDS011;47432;48.760;9.178;2022-12-18T02:30:27;39.50;;;20.60;;
6763;SDS011;47432;48.760;9.178;2022-12-18T02:32:57;48.15;;;20.38;;
6763;SDS011;47432;48.760;9.178;2022-12-18T02:35:25;45.67;;;21.25;;
6763;SDS011;47432;48.760;9.178;2022-12-18T02:37:54;36.42;;;19.38;;
6763;SDS011;47432;48.760;9.178;2022-12-18T02:40:22;44.72;;;20.60;;
6763;SDS011;47432;48.760;9.178;2022-12-18T02:42:54;38.58;;;19.50;;
6763;SDS011;47432;48.760;9.178;2022-12-18T02:45:25;42.17;;;20.55;;
6763;SDS011;47432;48.760;9.178;2022-12-18T02:47:51;36.38;;;17.83;;
6763;SDS011;47432;48.760;9.178;2022-12-18T02:53:06;35.33;;;17.83;;
6763;SDS011;47432;48.760;9.178;2022-12-18T02:56:03;39.25;;;17.60;;
6763;SDS011;47432;48.760;9.178;2022-12-18T02:59:06;35.70;;;16.30;;
6763;SDS011;47432;48.760;9.178;2022-12-18T03:07:05;36.95;;;16.25;;
6763;SDS011;47432;48.760;9.178;2022-12-18T03:09:36;36.25;;;16.08;;
6763;SDS011;47432;48.760;9.178;2022-12-18T03:12:18;35.78;;;15.27;;
6763;SDS011;47432;48.760;9.178;2022-12-18T03:15:01;38.22;;;17.95;;
6763;SDS011;47432;48.760;9.178;2022-12-18T03:17:43;29.92;;;15.30;;
6763;SDS011;47432;48.760;9.178;2022-12-18T03:20:17;39.53;;;17.00;;
6763;SDS011;47432;48.760;9.178;2022-12-18T03:22:45;32.25;;;15.55;;
6763;SDS011;47432;48.760;9.178;2022-12-18T03:25:16;36.17;;;15.43;;
6763;SDS011;47432;48.760;9.178;2022-12-18T03:27:47;36.40;;;16.67;;
6763;SDS011;47432;48.760;9.178;2022-12-18T03:30:17;33.83;;;16.73;;
6763;SDS011;47432;48.760;9.178;2022-12-18T03:35:32;34.65;;;15.05;;
6763;SDS011;47432;48.760;9.178;2022-12-18T03:38:01;34.78;;;16.00;;
6763;SDS011;47432;48.760;9.178;2022-12-18T03:40:31;35.35;;;14.93;;
6763;SDS011;47432;48.760;9.178;2022-12-18T03:46:13;32.15;;;14.20;;
6763;SDS011;47432;48.760;9.178;2022-12-18T03:49:01;31.45;;;14.55;;
6763;SDS011;47432;48.760;9.178;2022-12-18T03:51:38;31.02;;;13.63;;
6763;SDS011;47432;48.760;9.178;2022-12-18T03:54:09;32.83;;;14.73;;
6763;SDS011;47432;48.760;9.178;2022-12-18T03:56:40;39.10;;;15.77;;
6763;SDS011;47432;48.760;9.178;2022-12-18T03:59:12;28.85;;;14.00;;
6763;SDS011;47432;48.760;9.178;2022-12-18T04:01:41;35.13;;;15.98;;
6763;SDS011;47432;48.760;9.178;2022-12-18T04:04:14;35.17;;;16.60;;
6763;SDS011;47432;48.760;9.178;2022-12-18T04:06:41;41.22;;;17.23;;
6763;SDS011;47432;48.760;9.178;2022-12-18T04:09:08;30.63;;;14.02;;
6763;SDS011;47432;48.760;9.178;2022-12-18T04:11:34;34.05;;;14.95;;
6763;SDS011;47432;48.760;9.178;2022-12-18T04:14:00;37.10;;;16.50;;
6763;SDS011;47432;48.760;9.178;2022-12-18T04:16:26;36.93;;;15.40;;
6763;SDS011;47432;48.760;9.178;2022-12-18T04:18:53;40.90;;;16.13;;
6763;SDS011;47432;48.760;9.178;2022-12-18T04:21:19;32.47;;;17.40;;
6763;SDS011;47432;48.760;9.178;2022-12-18T04:23:48;36.03;;;16.50;;
6763;SDS011;47432;48.760;9.178;2022-12-18T04:26:14;36.25;;;16.35;;
6763;SDS011;47432;48.760;9.178;2022-12-18T04:28:39;35.67;;;15.90;;
6763;SDS011;47432;48.760;9.178;2022-12-18T04:31:05;38.27;;;16.10;;
6763;SDS011;47432;48.760;9.178;2022-12-18T04:33:31;36.60;;;16.60;;
6763;SDS011;47432;48.760;9.178;2022-12-18T04:35:56;32.07;;;15.10;;
6763;SDS011;47432;48.760;9.178;2022-12-18T04:38:23;32.38;;;15.10;;
6763;SDS011;47432;48.760;9.178;2022-12-18T04:40:50;39.90;;;16.73;;
6763;SDS011;47432;48.760;9.178;2022-12-18T04:43:16;42.97;;;17.50;;
6763;SDS011;47432;48.760;9.178;2022-12-18T04:45:42;32.20;;;15.10;;
6763;SDS011;47432;48.760;9.178;2022-12-18T04:48:10;35.22;;;16.67;;
6763;SDS011;47432;48.760;9.178;2022-12-18T04:50:38;42.90;;;16.90;;
6763;SDS011;47432;48.760;9.178;2022-12-18T04:53:04;32.83;;;16.17;;
6763;SDS011;47432;48.760;9.178;2022-12-18T04:55:30;30.95;;;14.93;;
6763;SDS011;47432;48.760;9.178;2022-12-18T04:57:58;34.33;;;14.85;;
6763;SDS011;47432;48.760;9.178;2022-12-18T05:00:26;35.28;;;16.42;;
6763;SDS011;47432;48.760;9.178;2022-12-18T05:02:55;34.83;;;16.08;;
6763;SDS011;47432;48.760;9.178;2022-12-18T05:05:21;37.78;;;16.27;;
6763;SDS011;47432;48.760;9.178;2022-12-18T05:07:46;32.67;;;15.63;;
6763;SDS011;47432;48.760;9.178;2022-12-18T05:10:13;33.05;;;15.68;;
6763;SDS011;47432;48.760;9.178;2022-12-18T05:12:38;42.97;;;18.17;;
6763;SDS011;47432;48.760;9.178;2022-12-18T05:15:22;33.92;;;14.90;;
6763;SDS011;47432;48.760;9.178;2022-12-18T05:17:55;32.88;;;14.48;;
6763;SDS011;47432;48.760;9.178;2022-12-18T05:20:27;37.60;;;15.98;;
6763;SDS011;47432;48.760;9.178;2022-12-18T05:22:53;32.78;;;15.05;;
6763;SDS011;47432;48.760;9.178;2022-12-18T05:25:27;33.13;;;15.25;;
6763;SDS011;47432;48.760;9.178;2022-12-18T05:27:53;33.15;;;14.82;;
6763;SDS011;47432;48.760;9.178;2022-12-18T05:30:21;37.83;;;16.67;;
6763;SDS011;47432;48.760;9.178;2022-12-18T05:32:50;69.78;;;31.23;;
6763;SDS011;47432;48.760;9.178;2022-12-18T05:35:16;30.67;;;14.40;;
6763;SDS011;47432;48.760;9.178;2022-12-18T05:37:42;31.98;;;15.48;;
6763;SDS011;47432;48.760;9.178;2022-12-18T05:40:08;32.45;;;15.15;;
6763;SDS011;47432;48.760;9.178;2022-12-18T05:42:35;38.47;;;15.57;;
6763;SDS011;47432;48.760;9.178;2022-12-18T05:45:01;30.83;;;14.13;;
6763;SDS011;47432;48.760;9.178;2022-12-18T05:47:30;29.13;;;13.65;;
6763;SDS011;47432;48.760;9.178;2022-12-18T05:49:56;32.33;;;14.90;;
6763;SDS011;47432;48.760;9.178;2022-12-18T05:52:24;29.98;;;15.25;;
6763;SDS011;47432;48.760;9.178;2022-12-18T05:54:50;33.90;;;13.67;;
6763;SDS011;47432;48.760;9.178;2022-12-18T05:57:19;39.95;;;15.73;;
6763;SDS011;47432;48.760;9.178;2022-12-18T05:59:45;29.55;;;11.82;;
6763;SDS011;47432;48.760;9.178;2022-12-18T06:02:11;33.33;;;14.05;;
6763;SDS011;47432;48.760;9.178;2022-12-18T06:04:40;32.22;;;14.02;;
6763;SDS011;47432;48.760;9.178;2022-12-18T06:07:05;31.50;;;13.75;;
6763;SDS011;47432;48.760;9.178;2022-12-18T06:09:31;27.53;;;13.10;;
6763;SDS011;47432;48.760;9.178;2022-12-18T06:11:57;36.15;;;14.50;;
6763;SDS011;47432;48.760;9.178;2022-12-18T06:14:23;32.50;;;14.82;;
6763;SDS011;47432;48.760;9.178;2022-12-18T06:16:54;28.50;;;14.40;;
6763;SDS011;47432;48.760;9.178;2022-12-18T06:19:22;30.85;;;14.05;;
6763;SDS011;47432;48.760;9.178;2022-12-18T06:21:48;31.37;;;14.40;;
6763;SDS011;47432;48.760;9.178;2022-12-18T06:24:15;29.60;;;14.63;;
6763;SDS011;47432;48.760;9.178;2022-12-18T06:26:41;29.85;;;13.80;;
6763;SDS011;47432;48.760;9.178;2022-12-18T06:29:09;36.95;;;13.80;;
6763;SDS011;47432;48.760;9.178;2022-12-18T06:31:38;30.80;;;14.02;;
6763;SDS011;47432;48.760;9.178;2022-12-18T06:34:08;30.70;;;12.82;;
6763;SDS011;47432;48.760;9.178;2022-12-18T06:36:33;29.65;;;13.73;;
6763;SDS011;47432;48.760;9.178;2022-12-18T06:39:01;30.33;;;13.05;;
6763;SDS011;47432;48.760;9.178;2022-12-18T06:41:28;28.67;;;13.80;;
6763;SDS011;47432;48.760;9.178;2022-12-18T06:43:53;32.83;;;14.30;;
6763;SDS011;47432;48.760;9.178;2022-12-18T06:46:24;34.70;;;14.63;;
6763;SDS011;47432;48.760;9.178;2022-12-18T06:48:50;30.58;;;14.10;;
6763;SDS011;47432;48.760;9.178;2022-12-18T06:51:17;29.55;;;13.82;;
6763;SDS011;47432;48.760;9.178;2022-12-18T06:53:44;27.95;;;12.55;;
6763;SDS011;47432;48.760;9.178;2022-12-18T06:56:11;30.92;;;13.35;;
6763;SDS011;47432;48.760;9.178;2022-12-18T06:58:37;33.55;;;12.25;;
6763;SDS011;47432;48.760;9.178;2022-12-18T07:01:08;32.08;;;14.25;;
6763;SDS011;47432;48.760;9.178;2022-12-18T07:03:38;30.50;;;14.15;;
6763;SDS011;47432;48.760;9.178;2022-12-18T07:06:13;27.58;;;11.63;;
6763;SDS011;47432;48.760;9.178;2022-12-18T07:08:44;29.58;;;13.35;;
6763;SDS011;47432;48.760;9.178;2022-12-18T07:11:11;31.08;;;12.73;;
6763;SDS011;47432;48.760;9.178;2022-12-18T07:13:39;25.73;;;12.93;;
6763;SDS011;47432;48.760;9.178;2022-12-18T07:16:09;31.23;;;14.40;;
6763;SDS011;47432;48.760;9.178;2022-12-18T07:18:43;33.60;;;14.00;;
6763;SDS011;47432;48.760;9.178;2022-12-18T07:21:10;30.83;;;13.43;;
6763;SDS011;47432;48.760;9.178;2022-12-18T07:23:38;33.85;;;14.55;;
6763;SDS011;47432;48.760;9.178;2022-12-18T07:26:05;27.80;;;12.98;;
6763;SDS011;47432;48.760;9.178;2022-12-18T07:28:37;33.50;;;14.73;;
6763;SDS011;47432;48.760;9.178;2022-12-18T07:31:08;33.80;;;12.90;;
6763;SDS011;47432;48.760;9.178;2022-12-18T07:33:36;74.53;;;32.15;;
6763;SDS011;47432;48.760;9.178;2022-12-18T07:36:02;30.60;;;15.15;;
6763;SDS011;47432;48.760;9.178;2022-12-18T07:38:30;35.00;;;14.80;;
6763;SDS011;47432;48.760;9.178;2022-12-18T07:41:00;32.78;;;13.20;;
6763;SDS011;47432;48.760;9.178;2022-12-18T07:43:36;29.27;;;12.45;;
6763;SDS011;47432;48.760;9.178;2022-12-18T07:46:05;35.47;;;17.05;;
6763;SDS011;47432;48.760;9.178;2022-12-18T07:48:32;37.85;;;16.02;;
6763;SDS011;47432;48.760;9.178;2022-12-18T07:51:01;27.80;;;13.30;;
6763;SDS011;47432;48.760;9.178;2022-12-18T07:53:33;42.58;;;19.05;;
6763;SDS011;47432;48.760;9.178;2022-12-18T07:56:02;32.65;;;15.38;;
6763;SDS011;47432;48.760;9.178;2022-12-18T07:58:30;38.22;;;18.83;;
6763;SDS011;47432;48.760;9.178;2022-12-18T08:01:06;44.60;;;18.63;;
6763;SDS011;47432;48.760;9.178;2022-12-18T08:03:37;39.83;;;17.60;;
6763;SDS011;47432;48.760;9.178;2022-12-18T08:06:06;33.88;;;16.65;;
6763;SDS011;47432;48.760;9.178;2022-12-18T08:08:37;36.17;;;15.63;;
6763;SDS011;47432;48.760;9.178;2022-12-18T08:11:07;36.05;;;14.95;;
6763;SDS011;47432;48.760;9.178;2022-12-18T08:13:35;38.03;;;16.90;;
6763;SDS011;47432;48.760;9.178;2022-12-18T08:16:02;36.83;;;15.65;;
6763;SDS011;47432;48.760;9.178;2022-12-18T08:18:32;30.52;;;15.25;;
6763;SDS011;47432;48.760;9.178;2022-12-18T08:21:07;33.33;;;16.35;;
6763;SDS011;47432;48.760;9.178;2022-12-18T08:23:37;31.20;;;14.10;;
6763;SDS011;47432;48.760;9.178;2022-12-18T08:26:03;36.42;;;17.25;;
6763;SDS011;47432;48.760;9.178;2022-12-18T08:28:29;39.67;;;17.38;;
6763;SDS011;47432;48.760;9.178;2022-12-18T08:30:56;32.58;;;12.93;;
6763;SDS011;47432;48.760;9.178;2022-12-18T08:33:22;31.80;;;14.98;;
6763;SDS011;47432;48.760;9.178;2022-12-18T08:35:47;30.70;;;14.10;;
6763;SDS011;47432;48.760;9.178;2022-12-18T08:38:13;32.25;;;14.65;;
6763;SDS011;47432;48.760;9.178;2022-12-18T08:40:42;31.88;;;15.23;;
6763;SDS011;47432;48.760;9.178;2022-12-18T08:43:09;38.25;;;15.05;;
6763;SDS011;47432;48.760;9.178;2022-12-18T08:45:54;34.97;;;15.45;;
6763;SDS011;47432;48.760;9.178;2022-12-18T08:48:20;38.55;;;17.23;;
6763;SDS011;47432;48.760;9.178;2022-12-18T08:50:59;32.67;;;16.10;;
6763;SDS011;47432;48.760;9.178;2022-12-18T08:53:25;39.15;;;17.73;;
6763;SDS011;47432;48.760;9.178;2022-12-18T08:55:51;40.58;;;16.38;;
6763;SDS011;47432;48.760;9.178;2022-12-18T08:58:18;35.33;;;17.73;;
6763;SDS011;47432;48.760;9.178;2022-12-18T09:00:44;30.85;;;15.13;;
6763;SDS011;47432;48.760;9.178;2022-12-18T09:03:11;28.10;;;15.00;;
6763;SDS011;47432;48.760;9.178;2022-12-18T09:05:38;38.30;;;15.18;;
6763;SDS011;47432;48.760;9.178;2022-12-18T09:08:04;32.33;;;14.00;;
6763;SDS011;47432;48.760;9.178;2022-12-18T09:10:33;31.23;;;13.30;;
6763;SDS011;47432;48.760;9.178;2022-12-18T09:12:59;26.83;;;12.40;;
6763;SDS011;47432;48.760;9.178;2022-12-18T09:15:27;40.67;;;14.77;;
6763;SDS011;47432;48.760;9.178;2022-12-18T09:17:55;29.17;;;13.90;;
6763;SDS011;47432;48.760;9.178;2022-12-18T09:20:20;26.90;;;12.77;;
6763;SDS011;47432;48.760;9.178;2022-12-18T09:22:46;32.15;;;13.70;;
6763;SDS011;47432;48.760;9.178;2022-12-18T09:25:20;29.58;;;12.50;;
6763;SDS011;47432;48.760;9.178;2022-12-18T09:27:46;33.20;;;15.50;;
6763;SDS011;47432;48.760;9.178;2022-12-18T09:30:13;31.65;;;14.50;;
6763;SDS011;47432;48.760;9.178;2022-12-18T09:32:38;32.90;;;13.43;;
6763;SDS011;47432;48.760;9.178;2022-12-18T09:35:04;32.45;;;15.63;;
6763;SDS011;47432;48.760;9.178;2022-12-18T09:37:31;37.33;;;15.05;;
6763;SDS011;47432;48.760;9.178;2022-12-18T09:39:57;38.17;;;15.23;;
6763;SDS011;47432;48.760;9.178;2022-12-18T09:42:23;33.33;;;15.93;;
6763;SDS011;47432;48.760;9.178;2022-12-18T09:44:49;27.40;;;13.77;;
6763;SDS011;47432;48.760;9.178;2022-12-18T09:47:28;33.80;;;16.75;;
6763;SDS011;47432;48.760;9.178;2022-12-18T09:49:59;36.15;;;16.73;;
6763;SDS011;47432;48.760;9.178;2022-12-18T09:52:37;41.83;;;18.38;;
6763;SDS011;47432;48.760;9.178;2022-12-18T09:57:45;35.33;;;17.23;;
6763;SDS011;47432;48.760;9.178;2022-12-18T10:00:18;35.05;;;18.63;;
6763;SDS011;47432;48.760;9.178;2022-12-18T10:02:47;34.78;;;18.88;;
6763;SDS011;47432;48.760;9.178;2022-12-18T10:05:17;36.58;;;17.30;;
6763;SDS011;47432;48.760;9.178;2022-12-18T10:10:46;37.55;;;18.10;;
6763;SDS011;47432;48.760;9.178;2022-12-18T10:18:57;42.25;;;20.88;;
6763;SDS011;47432;48.760;9.178;2022-12-18T10:27:40;42.10;;;19.73;;
6763;SDS011;47432;48.760;9.178;2022-12-18T10:30:12;39.57;;;20.60;;
6763;SDS011;47432;48.760;9.178;2022-12-18T10:32:43;40.22;;;19.27;;
6763;SDS011;47432;48.760;9.178;2022-12-18T10:38:04;44.05;;;19.42;;
6763;SDS011;47432;48.760;9.178;2022-12-18T10:40:59;40.03;;;19.48;;
6763;SDS011;47432;48.760;9.178;2022-12-18T10:43:39;42.83;;;20.20;;
6763;SDS011;47432;48.760;9.178;2022-12-18T10:51:19;39.60;;;18.97;;
6763;SDS011;47432;48.760;9.178;2022-12-18T10:54:13;40.83;;;19.00;;
6763;SDS011;47432;48.760;9.178;2022-12-18T10:56:41;41.47;;;19.50;;
6763;SDS011;47432;48.760;9.178;2022-12-18T10:59:12;37.15;;;17.90;;
6763;SDS011;47432;48.760;9.178;2022-12-18T11:01:58;32.90;;;18.03;;
6763;SDS011;47432;48.760;9.178;2022-12-18T11:04:28;36.73;;;19.07;;
6763;SDS011;47432;48.760;9.178;2022-12-18T11:06:57;34.93;;;17.10;;
6763;SDS011;47432;48.760;9.178;2022-12-18T11:09:35;38.27;;;18.47;;
6763;SDS011;47432;48.760;9.178;2022-12-18T11:12:14;40.30;;;19.00;;
6763;SDS011;47432;48.760;9.178;2022-12-18T11:14:47;34.47;;;16.50;;
6763;SDS011;47432;48.760;9.178;2022-12-18T11:17:20;37.67;;;18.37;;
6763;SDS011;47432;48.760;9.178;2022-12-18T11:19:59;36.47;;;18.60;;
6763;SDS011;47432;48.760;9.178;2022-12-18T11:22:32;40.13;;;19.03;;
6763;SDS011;47432;48.760;9.178;2022-12-18T11:27:30;32.03;;;18.00;;
6763;SDS011;47432;48.760;9.178;2022-12-18T11:30:08;37.77;;;19.33;;
6763;SDS011;47432;48.760;9.178;2022-12-18T11:36:00;33.73;;;17.03;;
6763;SDS011;47432;48.760;9.178;2022-12-18T11:38:24;37.77;;;17.80;;
6763;SDS011;47432;48.760;9.178;2022-12-18T11:41:05;34.60;;;16.70;;
6763;SDS011;47432;48.760;9.178;2022-12-18T11:43:50;41.57;;;19.03;;
6763;SDS011;47432;48.760;9.178;2022-12-18T11:46:37;38.13;;;17.20;;
6763;SDS011;47432;48.760;9.178;2022-12-18T11:54:35;36.60;;;16.07;;
6763;SDS011;47432;48.760;9.178;2022-12-18T11:59:51;36.50;;;18.90;;
6763;SDS011;47432;48.760;9.178;2022-12-18T12:13:17;37.30;;;18.17;;
6763;SDS011;47432;48.760;9.178;2022-12-18T12:21:53;36.00;;;15.77;;
6763;SDS011;47432;48.760;9.178;2022-12-18T12:24:45;37.00;;;18.23;;
6763;SDS011;47432;48.760;9.178;2022-12-18T12:32:51;33.37;;;16.57;;
6763;SDS011;47432;48.760;9.178;2022-12-18T12:38:27;39.53;;;18.13;;
6763;SDS011;47432;48.760;9.178;2022-12-18T12:41:09;42.13;;;18.00;;
6763;SDS011;47432;48.760;9.178;2022-12-18T12:44:00;44.20;;;20.03;;
6763;SDS011;47432;48.760;9.178;2022-12-18T12:46:28;37.47;;;17.30;;
6763;SDS011;47432;48.760;9.178;2022-12-18T12:48:56;37.00;;;17.70;;
6763;SDS011;47432;48.760;9.178;2022-12-18T12:54:01;39.20;;;16.47;;
6763;SDS011;47432;48.760;9.178;2022-12-18T12:56:37;39.13;;;18.90;;
6763;SDS011;47432;48.760;9.178;2022-12-18T13:02:05;39.70;;;16.63;;
6763;SDS011;47432;48.760;9.178;2022-12-18T13:04:51;34.57;;;17.27;;
6763;SDS011;47432;48.760;9.178;2022-12-18T13:07:49;35.63;;;17.10;;
6763;SDS011;47432;48.760;9.178;2022-12-18T13:10:33;31.67;;;15.30;;
6763;SDS011;47432;48.760;9.178;2022-12-18T13:13:07;39.93;;;18.90;;
6763;SDS011;47432;48.760;9.178;2022-12-18T13:18:29;36.63;;;18.37;;
6763;SDS011;47432;48.760;9.178;2022-12-18T13:21:03;37.30;;;18.17;;
6763;SDS011;47432;48.760;9.178;2022-12-18T13:23:42;36.60;;;16.97;;
6763;SDS011;47432;48.760;9.178;2022-12-18T13:28:57;39.77;;;18.83;;
6763;SDS011;47432;48.760;9.178;2022-12-18T13:34:19;35.10;;;17.80;;
6763;SDS011;47432;48.760;9.178;2022-12-18T13:36:52;37.00;;;16.30;;
6763;SDS011;47432;48.760;9.178;2022-12-18T13:39:23;37.70;;;17.57;;
6763;SDS011;47432;48.760;9.178;2022-12-18T13:44:57;35.13;;;18.07;;
6763;SDS011;47432;48.760;9.178;2022-12-18T13:49:59;35.10;;;16.83;;
6763;SDS011;47432;48.760;9.178;2022-12-18T13:52:36;32.20;;;16.50;;
6763;SDS011;47432;48.760;9.178;2022-12-18T13:55:05;40.40;;;20.00;;
6763;SDS011;47432;48.760;9.178;2022-12-18T13:57:37;39.30;;;17.90;;
6763;SDS011;47432;48.760;9.178;2022-12-18T14:02:50;37.80;;;18.33;;
6763;SDS011;47432;48.760;9.178;2022-12-18T14:05:23;39.93;;;20.20;;
6763;SDS011;47432;48.760;9.178;2022-12-18T14:07:59;35.47;;;17.27;;
6763;SDS011;47432;48.760;9.178;2022-12-18T14:10:33;39.93;;;18.70;;
6763;SDS011;47432;48.760;9.178;2022-12-18T14:13:05;39.23;;;19.30;;
6763;SDS011;47432;48.760;9.178;2022-12-18T14:15:44;34.73;;;17.50;;
6763;SDS011;47432;48.760;9.178;2022-12-18T14:21:04;36.30;;;18.40;;
6763;SDS011;47432;48.760;9.178;2022-12-18T14:23:31;37.47;;;18.60;;
6763;SDS011;47432;48.760;9.178;2022-12-18T14:26:00;37.80;;;19.27;;
6763;SDS011;47432;48.760;9.178;2022-12-18T14:28:27;37.17;;;18.73;;
6763;SDS011;47432;48.760;9.178;2022-12-18T14:30:56;43.17;;;19.20;;
6763;SDS011;47432;48.760;9.178;2022-12-18T14:33:23;42.13;;;19.33;;
6763;SDS011;47432;48.760;9.178;2022-12-18T14:35:54;40.70;;;19.93;;
6763;SDS011;47432;48.760;9.178;2022-12-18T14:41:00;43.90;;;20.00;;
6763;SDS011;47432;48.760;9.178;2022-12-18T14:43:33;39.03;;;19.40;;
6763;SDS011;47432;48.760;9.178;2022-12-18T14:46:01;37.90;;;17.73;;
6763;SDS011;47432;48.760;9.178;2022-12-18T14:48:35;45.80;;;22.00;;
6763;SDS011;47432;48.760;9.178;2022-12-18T14:53:46;41.50;;;20.80;;
6763;SDS011;47432;48.760;9.178;2022-12-18T14:58:44;39.93;;;20.67;;
6763;SDS011;47432;48.760;9.178;2022-12-18T15:01:34;36.03;;;18.57;;
6763;SDS011;47432;48.760;9.178;2022-12-18T15:07:15;43.57;;;21.00;;
6763;SDS011;47432;48.760;9.178;2022-12-18T15:10:11;41.07;;;19.33;;
6763;SDS011;47432;48.760;9.178;2022-12-18T15:12:43;41.20;;;20.53;;
6763;SDS011;47432;48.760;9.178;2022-12-18T15:18:02;42.50;;;19.80;;
6763;SDS011;47432;48.760;9.178;2022-12-18T15:23:35;43.60;;;21.63;;
6763;SDS011;47432;48.760;9.178;2022-12-18T15:26:14;41.73;;;19.13;;
6763;SDS011;47432;48.760;9.178;2022-12-18T15:31:31;40.13;;;20.17;;
6763;SDS011;47432;48.760;9.178;2022-12-18T15:36:37;43.50;;;18.00;;
6763;SDS011;47432;48.760;9.178;2022-12-18T15:39:05;43.00;;;19.23;;
6763;SDS011;47432;48.760;9.178;2022-12-18T15:41:34;40.37;;;20.33;;
6763;SDS011;47432;48.760;9.178;2022-12-18T15:44:01;43.53;;;18.13;;
6763;SDS011;47432;48.760;9.178;2022-12-18T15:46:30;46.77;;;19.70;;
6763;SDS011;47432;48.760;9.178;2022-12-18T15:48:59;42.90;;;20.10;;
6763;SDS011;47432;48.760;9.178;2022-12-18T15:51:29;44.17;;;21.07;;
6763;SDS011;47432;48.760;9.178;2022-12-18T15:54:01;39.20;;;18.70;;
6763;SDS011;47432;48.760;9.178;2022-12-18T15:56:29;42.77;;;19.90;;
6763;SDS011;47432;48.760;9.178;2022-12-18T15:59:14;38.93;;;19.20;;
6763;SDS011;47432;48.760;9.178;2022-12-18T16:01:43;43.27;;;18.87;;
6763;SDS011;47432;48.760;9.178;2022-12-18T16:04:13;41.87;;;19.03;;
6763;SDS011;47432;48.760;9.178;2022-12-18T16:06:42;47.47;;;20.47;;
6763;SDS011;47432;48.760;9.178;2022-12-18T16:09:08;42.70;;;19.17;;
6763;SDS011;47432;48.760;9.178;2022-12-18T16:11:36;40.90;;;20.07;;
6763;SDS011;47432;48.760;9.178;2022-12-18T16:16:47;40.28;;;18.75;;
6763;SDS011;47432;48.760;9.178;2022-12-18T16:19:21;42.72;;;18.23;;
6763;SDS011;47432;48.760;9.178;2022-12-18T16:21:48;41.57;;;18.70;;
6763;SDS011;47432;48.760;9.178;2022-12-18T16:24:20;43.60;;;19.08;;
6763;SDS011;47432;48.760;9.178;2022-12-18T16:26:50;40.50;;;18.07;;
6763;SDS011;47432;48.760;9.178;2022-12-18T16:29:17;45.42;;;19.63;;
6763;SDS011;47432;48.760;9.178;2022-12-18T16:31:43;39.90;;;19.33;;
6763;SDS011;47432;48.760;9.178;2022-12-18T16:34:10;41.63;;;18.83;;
6763;SDS011;47432;48.760;9.178;2022-12-18T16:36:44;46.17;;;18.93;;
6763;SDS011;47432;48.760;9.178;2022-12-18T16:39:14;36.93;;;18.73;;
6763;SDS011;47432;48.760;9.178;2022-12-18T16:41:41;39.37;;;18.60;;
6763;SDS011;47432;48.760;9.178;2022-12-18T16:44:07;37.93;;;18.67;;
6763;SDS011;47432;48.760;9.178;2022-12-18T16:46:33;38.47;;;17.80;;
6763;SDS011;47432;48.760;9.178;2022-12-18T16:48:59;38.63;;;16.30;;
6763;SDS011;47432;48.760;9.178;2022-12-18T16:51:26;39.47;;;18.50;;
6763;SDS011;47432;48.760;9.178;2022-12-18T16:53:55;35.87;;;17.30;;
6763;SDS011;47432;48.760;9.178;2022-12-18T16:56:21;40.97;;;19.80;;
6763;SDS011;47432;48.760;9.178;2022-12-18T16:58:51;43.87;;;19.13;;
6763;SDS011;47432;48.760;9.178;2022-12-18T17:01:24;35.63;;;17.20;;
6763;SDS011;47432;48.760;9.178;2022-12-18T17:03:55;40.63;;;19.57;;
6763;SDS011;47432;48.760;9.178;2022-12-18T17:06:23;37.10;;;18.03;;
6763;SDS011;47432;48.760;9.178;2022-12-18T17:08:56;45.00;;;21.00;;
6763;SDS011;47432;48.760;9.178;2022-12-18T17:11:26;38.50;;;18.97;;
6763;SDS011;47432;48.760;9.178;2022-12-18T17:13:57;38.83;;;17.90;;
6763;SDS011;47432;48.760;9.178;2022-12-18T17:16:26;41.60;;;20.40;;